»·PEaware :: N302ER KSAT-KELP

N302ER :: KSAT-KELP

FLIGHT INFORMATION

Flight Status: Arrived
Operator: Privately registered:
United States
More flights under this callsign
Pilot: Jimmy H. (16574)
Aircraft: PIAGGIO P-180 AVANTI
(P180)
More flights by this aircraft type
Origin: KSAT San Antonio Intl
United States
Destination: KELP El Paso Intl
United States
More flights between these airports :: More routes between these airports
Route: REUBE V68 CSI J138 FST V198 ELP
File this flight plan on PilotEdge
Remarks: Incoming from out of network, squawking 2401 (ZHU EP-1)
Altitude:
(Current/Filed)
30,000ft
Speed:
(Current/Filed)
380kts
Departed: 17-Oct-17 01:01 PM
Arrived: 17-Oct-17 02:23 PM
Distance/Time
Traveled:
430nm/1:21
Distance/Time
To Go:
Arrived

Flight Plot

Page will automatically refresh every two minutes.

Flight plan parsing failed; only flown route is shown


Map Options




Map Legend


Flown Route
Filed Route
Departure Airport
Arrival Airport
Navaid (VOR, NDB)
Fix

Horizontal Profiles

Position Reports

Time Latitude Longitude Heading Altitude Ground
Speed
17-Oct-17 12:57 29.535255 -98.463522 266 777ft 0kts
17-Oct-17 12:58 29.535255 -98.463522 266 777ft 0kts
17-Oct-17 12:59 29.535255 -98.463522 266 777ft 0kts
17-Oct-17 13:00 29.535255 -98.463522 266 777ft 0kts
17-Oct-17 13:01 29.535255 -98.463522 266 777ft 0kts
17-Oct-17 13:02 29.535312 -98.462894 142 777ft 11kts
17-Oct-17 13:03 29.534254 -98.465176 267 777ft 8kts
17-Oct-17 13:04 29.532950 -98.466185 131 777ft 13kts
17-Oct-17 13:05 29.530662 -98.463903 216 777ft 5kts
17-Oct-17 13:06 29.533565 -98.469050 311 777ft 108kts
17-Oct-17 13:07 29.564989 -98.506563 313 3109ft 173kts
17-Oct-17 13:08 29.597032 -98.547354 311 5900ft 178kts
17-Oct-17 13:09 29.629520 -98.590567 311 8397ft 182kts
17-Oct-17 13:10 29.662748 -98.635267 310 10596ft 188kts
17-Oct-17 13:11 29.697199 -98.681779 310 13406ft 196kts
17-Oct-17 13:12 29.733043 -98.730264 310 16154ft 206kts
17-Oct-17 13:13 29.764174 -98.785550 293 18776ft 213kts
17-Oct-17 13:14 29.787098 -98.847106 293 21189ft 222kts
17-Oct-17 13:15 29.811613 -98.913409 293 23498ft 231kts
17-Oct-17 13:16 29.837085 -98.982486 293 25837ft 239kts
17-Oct-17 13:17 29.858926 -99.041824 293 27513ft 246kts
17-Oct-17 13:18 29.885906 -99.115109 293 29246ft 254kts
17-Oct-17 13:19 29.920163 -99.207963 292 30289ft 303kts
17-Oct-17 13:20 29.944437 -99.290155 288 30287ft 342kts
17-Oct-17 13:21 29.975508 -99.397402 288 30279ft 363kts
17-Oct-17 13:22 30.013254 -99.528111 288 30278ft 370kts
17-Oct-17 13:23 30.040241 -99.621907 288 30281ft 371kts
17-Oct-17 13:24 30.072644 -99.734900 288 30283ft 371kts
17-Oct-17 13:25 30.105040 -99.848282 288 30283ft 372kts
17-Oct-17 13:26 30.137231 -99.961358 288 30283ft 372kts
17-Oct-17 13:27 30.169441 -100.074913 288 30283ft 372kts
17-Oct-17 13:28 30.201560 -100.187615 287 30293ft 371kts
17-Oct-17 13:29 30.233605 -100.301298 287 30306ft 371kts
17-Oct-17 13:30 30.265474 -100.414915 287 30310ft 372kts
17-Oct-17 13:31 30.297233 -100.528556 287 30311ft 372kts
17-Oct-17 13:32 30.328829 -100.642033 287 30311ft 372kts
17-Oct-17 13:33 30.360410 -100.755882 287 30311ft 372kts
17-Oct-17 13:34 30.391962 -100.870070 287 30306ft 372kts
17-Oct-17 13:35 30.423284 -100.983834 287 30298ft 372kts
17-Oct-17 13:36 30.454614 -101.098074 287 30292ft 372kts
17-Oct-17 13:37 30.486106 -101.212299 287 30292ft 372kts
17-Oct-17 13:38 30.517126 -101.326210 287 30292ft 372kts
17-Oct-17 13:39 30.548110 -101.440470 287 30292ft 372kts
17-Oct-17 13:40 30.579030 -101.554927 287 30292ft 372kts
17-Oct-17 13:41 30.609877 -101.669548 287 30292ft 372kts
17-Oct-17 13:42 30.640589 -101.784155 287 30292ft 372kts
17-Oct-17 13:43 30.671182 -101.898776 287 30292ft 372kts
17-Oct-17 13:44 30.701644 -102.013325 287 30292ft 372kts
17-Oct-17 13:45 30.732141 -102.128058 287 30284ft 372kts
17-Oct-17 13:46 30.762671 -102.243076 286 30275ft 372kts
17-Oct-17 13:47 30.792944 -102.358267 286 30274ft 372kts
17-Oct-17 13:48 30.823038 -102.473265 286 30274ft 372kts
17-Oct-17 13:49 30.852925 -102.588309 289 30274ft 372kts
17-Oct-17 13:50 30.882835 -102.703546 291 29788ft 372kts
17-Oct-17 13:51 30.912614 -102.818369 292 28598ft 369kts
17-Oct-17 13:52 30.942061 -102.932685 292 27420ft 370kts
17-Oct-17 13:53 30.967777 -103.048722 289 26246ft 373kts
17-Oct-17 13:54 30.992176 -103.162510 289 25037ft 358kts
17-Oct-17 13:55 31.015800 -103.273239 289 24064ft 346kts
17-Oct-17 13:56 31.038843 -103.381929 288 22903ft 346kts
17-Oct-17 13:57 31.061880 -103.491183 288 21708ft 348kts
17-Oct-17 13:58 31.084682 -103.599870 288 20501ft 340kts
17-Oct-17 13:59 31.105956 -103.701756 289 20190ft 305kts
17-Oct-17 14:00 31.125150 -103.793633 288 20209ft 292kts
17-Oct-17 14:01 31.145935 -103.893566 286 20211ft 335kts
17-Oct-17 14:02 31.168159 -104.001492 284 20210ft 348kts
17-Oct-17 14:03 31.190861 -104.111883 283 20209ft 351kts
17-Oct-17 14:04 31.221650 -104.220556 289 20207ft 352kts
17-Oct-17 14:05 31.254556 -104.328428 289 20194ft 353kts
17-Oct-17 14:06 31.288396 -104.439576 289 19210ft 369kts
17-Oct-17 14:07 31.322239 -104.551133 289 18202ft 362kts
17-Oct-17 14:08 31.355048 -104.659663 289 17174ft 343kts
17-Oct-17 14:09 31.386209 -104.763097 289 16161ft 333kts
17-Oct-17 14:10 31.416406 -104.863675 289 15997ft 326kts
17-Oct-17 14:11 31.446418 -104.963948 289 16000ft 326kts
17-Oct-17 14:12 31.476363 -105.064323 289 16000ft 326kts
17-Oct-17 14:13 31.505734 -105.162276 289 16004ft 326kts
17-Oct-17 14:14 31.535511 -105.262496 289 16024ft 326kts
17-Oct-17 14:15 31.565235 -105.363081 289 16043ft 326kts
17-Oct-17 14:16 31.593130 -105.464281 287 16037ft 326kts
17-Oct-17 14:17 31.620526 -105.563704 287 14905ft 315kts
17-Oct-17 14:18 31.647169 -105.660610 288 13801ft 310kts
17-Oct-17 14:19 31.673433 -105.756396 288 12704ft 307kts
17-Oct-17 14:20 31.698981 -105.849912 288 11590ft 295kts
17-Oct-17 14:21 31.723539 -105.940110 288 10482ft 286kts
17-Oct-17 14:22 31.747390 -106.027939 288 9369ft 276kts
17-Oct-17 14:23 31.763400 -106.113832 278 8255ft 266kts
17-Oct-17 14:24 31.773420 -106.195486 278 7105ft 233kts
17-Oct-17 14:25 31.787810 -106.258885 289 6219ft 179kts
17-Oct-17 14:26 31.797951 -106.309202 273 5041ft 143kts
17-Oct-17 14:27 31.800232 -106.352466 272 4120ft 122kts
17-Oct-17 14:28 31.800339 -106.370532 183 3948ft 8kts
17-Oct-17 14:29 31.799101 -106.371498 244 3947ft 12kts
17-Oct-17 14:30 31.797660 -106.374611 255 3944ft 4kts

Navigation Log

Ident Type
Flight plan parsing failed, navigation log unavailable